Time;durP1;ratioP1;P1;durP2;ratioP2;P2;SDS_P1;SDS_P2;PMS_P1;PMS_P2;Temp;Humidity;BMP_temperature;BMP_pressure;BME280_temperature;BME280_humidity;BME280_pressure;Samples;Min_cycle;Max_cycle;Signal;HPM_P1;HPM_P2
2022/07/17 00:02:02;;;;;;;10.65;7.40;;;24.50;62.90;;;;;;5055525;28;20428;-15
2022/07/17 00:04:28;;;;;;;8.43;7.15;;;24.50;62.90;;;;;;5055560;28;20067;-15
2022/07/17 00:06:54;;;;;;;11.60;7.93;;;24.50;63.20;;;;;;5054579;28;20025;-15
2022/07/17 00:09:20;;;;;;;9.77;8.20;;;24.50;63.30;;;;;;5055855;28;20396;-15
2022/07/17 00:11:46;;;;;;;14.18;9.20;;;24.50;63.30;;;;;;5055588;28;20018;-14
2022/07/17 00:14:12;;;;;;;12.75;9.23;;;24.50;63.90;;;;;;5055733;28;20404;-14
2022/07/17 00:16:41;;;;;;;11.52;9.30;;;24.50;64.30;;;;;;5055562;28;20480;-14
2022/07/17 00:19:07;;;;;;;11.70;9.43;;;24.40;64.70;;;;;;5055455;28;20025;-15
2022/07/17 00:21:33;;;;;;;14.60;11.13;;;24.40;65.00;;;;;;5055277;28;20091;-14
2022/07/17 00:23:59;;;;;;;14.95;12.80;;;24.40;65.60;;;;;;5055329;28;20025;-14
2022/07/17 00:26:25;;;;;;;13.85;10.52;;;24.40;65.90;;;;;;5055000;28;20036;-15
2022/07/17 00:28:51;;;;;;;14.45;11.57;;;24.30;65.80;;;;;;5055514;28;20055;-15
2022/07/17 00:31:17;;;;;;;14.18;11.45;;;24.30;66.70;;;;;;5054927;28;20021;-14
2022/07/17 00:33:43;;;;;;;13.23;11.32;;;24.30;67.30;;;;;;5055164;28;20043;-15
2022/07/17 00:39:31;;;;;;;15.27;11.95;;;24.30;68.30;;;;;;5055246;28;20079;-14
2022/07/17 00:41:57;;;;;;;14.45;11.80;;;24.20;67.80;;;;;;5054800;28;20036;-14
2022/07/17 00:44:26;;;;;;;14.70;10.45;;;24.20;68.20;;;;;;5054572;28;20114;-15
2022/07/17 00:46:53;;;;;;;12.57;10.32;;;24.30;68.30;;;;;;5053896;28;20029;-14
2022/07/17 00:49:19;;;;;;;11.23;8.82;;;24.30;68.40;;;;;;5054988;28;20071;-14
2022/07/17 00:51:45;;;;;;;11.88;9.77;;;24.40;67.60;;;;;;5054649;28;20021;-14
2022/07/17 00:54:13;;;;;;;10.73;9.30;;;24.50;67.40;;;;;;5054574;28;20017;-14
2022/07/17 00:56:45;;;;;;;9.95;8.50;;;24.50;66.80;;;;;;5054561;28;20035;-15
2022/07/17 00:59:14;;;;;;;12.38;8.32;;;24.60;66.30;;;;;;5054640;28;20021;-15
2022/07/17 01:01:40;;;;;;;10.98;9.70;;;24.70;66.10;;;;;;5054276;28;20055;-15
2022/07/17 01:04:06;;;;;;;13.90;8.95;;;24.70;66.90;;;;;;5054403;28;20029;-14
2022/07/17 01:06:32;;;;;;;14.48;9.57;;;24.80;66.20;;;;;;5054294;28;20025;-15
2022/07/17 01:08:58;;;;;;;11.95;9.30;;;24.80;67.30;;;;;;5054978;28;20427;-15
2022/07/17 01:11:24;;;;;;;11.85;9.50;;;24.80;67.40;;;;;;5054303;28;20477;-14
2022/07/17 01:13:52;;;;;;;10.70;8.85;;;24.90;67.20;;;;;;5054685;28;20024;-16
2022/07/17 01:16:18;;;;;;;10.80;9.70;;;24.90;67.20;;;;;;5054242;28;20498;-15
2022/07/17 01:18:44;;;;;;;13.68;9.57;;;24.80;67.30;;;;;;5054029;28;20040;-16
2022/07/17 01:21:10;;;;;;;12.98;9.23;;;24.80;67.20;;;;;;5054285;28;20052;-14
2022/07/17 01:23:36;;;;;;;10.60;8.85;;;24.90;67.00;;;;;;5054057;28;20501;-13
2022/07/17 01:26:02;;;;;;;11.27;9.07;;;24.80;66.80;;;;;;5052699;28;20108;-15
2022/07/17 01:28:30;;;;;;;10.00;8.38;;;24.80;67.60;;;;;;5054042;28;20025;-17
2022/07/17 01:30:56;;;;;;;14.00;8.70;;;24.80;66.60;;;;;;5054285;28;20021;-16
2022/07/17 01:33:22;;;;;;;10.98;8.48;;;24.80;66.70;;;;;;5053707;28;20052;-14
2022/07/17 01:35:48;;;;;;;13.27;8.85;;;24.70;66.50;;;;;;5054007;28;20060;-15
2022/07/17 01:38:14;;;;;;;9.65;7.90;;;24.70;66.40;;;;;;5053858;28;20036;-15
2022/07/17 01:40:40;;;;;;;13.13;8.85;;;24.70;66.10;;;;;;5054231;28;20032;-16
2022/07/17 01:43:06;;;;;;;10.93;8.32;;;24.70;66.50;;;;;;5053990;28;20037;-14
2022/07/17 01:45:32;;;;;;;12.50;7.70;;;24.60;66.10;;;;;;5053971;28;20032;-14
2022/07/17 01:47:58;;;;;;;10.57;8.20;;;24.60;65.90;;;;;;5053719;28;20025;-14
2022/07/17 01:50:24;;;;;;;9.65;7.32;;;24.50;65.60;;;;;;5053320;28;20480;-16
2022/07/17 01:52:50;;;;;;;12.00;7.72;;;24.50;65.20;;;;;;5053753;28;20504;-16
2022/07/17 01:55:17;;;;;;;8.90;7.57;;;24.50;64.90;;;;;;5053466;28;20500;-15
2022/07/17 01:57:43;;;;;;;8.98;7.65;;;24.50;64.50;;;;;;5053496;28;20021;-15
2022/07/17 02:00:14;;;;;;;9.70;7.20;;;24.50;64.20;;;;;;5053375;28;20067;-15
2022/07/17 02:02:40;;;;;;;8.50;7.40;;;24.50;63.80;;;;;;5053598;28;20032;-14
2022/07/17 02:05:07;;;;;;;10.13;6.55;;;24.50;63.80;;;;;;5053650;28;20056;-15
2022/07/17 02:07:35;;;;;;;8.23;7.00;;;24.50;63.70;;;;;;5053394;28;20090;-16
2022/07/17 02:10:01;;;;;;;7.80;7.00;;;24.50;63.70;;;;;;5053484;28;20492;-13
2022/07/17 02:12:27;;;;;;;7.10;6.28;;;24.40;63.70;;;;;;5053230;28;20350;-15
2022/07/17 02:14:53;;;;;;;9.43;6.88;;;24.40;63.50;;;;;;5053196;28;20158;-15
2022/07/17 02:17:19;;;;;;;9.13;6.53;;;24.40;63.60;;;;;;5053396;28;20021;-14
2022/07/17 02:19:45;;;;;;;8.50;6.70;;;24.30;63.60;;;;;;5052991;28;20362;-14
2022/07/17 02:22:11;;;;;;;11.35;6.80;;;24.30;63.50;;;;;;5052990;28;20029;-14
2022/07/17 02:24:37;;;;;;;9.10;6.80;;;24.30;63.50;;;;;;5052874;28;20029;-15
2022/07/17 02:27:03;;;;;;;10.50;7.25;;;24.20;63.50;;;;;;5053315;28;20500;-16
2022/07/17 02:29:29;;;;;;;7.72;5.85;;;24.20;63.30;;;;;;5053277;28;20028;-14
2022/07/17 02:31:55;;;;;;;8.60;6.13;;;24.10;63.20;;;;;;5052735;28;20140;-15
2022/07/17 02:34:21;;;;;;;8.77;6.03;;;24.10;63.10;;;;;;5052830;28;20108;-14
2022/07/17 02:36:47;;;;;;;9.32;6.57;;;24.10;63.00;;;;;;5053173;28;20025;-14
2022/07/17 02:39:13;;;;;;;9.00;6.53;;;24.00;62.80;;;;;;5052920;28;20033;-15
2022/07/17 02:41:39;;;;;;;7.07;5.80;;;24.00;62.80;;;;;;5052779;28;20029;-14
2022/07/17 02:44:05;;;;;;;12.13;5.70;;;23.90;62.50;;;;;;5052876;28;20032;-14
2022/07/17 02:46:31;;;;;;;8.43;5.63;;;23.90;62.40;;;;;;5052736;28;20032;-16
2022/07/17 02:48:57;;;;;;;7.95;5.68;;;23.90;62.20;;;;;;5053171;28;20035;-14
2022/07/17 02:51:23;;;;;;;7.43;5.53;;;23.90;62.00;;;;;;5052795;28;20068;-16
2022/07/17 02:53:49;;;;;;;6.18;5.43;;;23.90;61.80;;;;;;5053074;28;20021;-14
2022/07/17 02:56:15;;;;;;;7.75;5.45;;;23.90;61.70;;;;;;5052719;28;20472;-15
2022/07/17 02:58:41;;;;;;;7.50;5.78;;;23.90;61.60;;;;;;5051533;28;20037;-15
2022/07/17 03:01:07;;;;;;;7.65;5.72;;;23.90;61.40;;;;;;5052685;28;20594;-14
2022/07/17 03:03:33;;;;;;;6.30;5.40;;;23.90;61.30;;;;;;5053102;28;20044;-14
2022/07/17 03:05:59;;;;;;;8.73;5.25;;;23.90;61.10;;;;;;5052550;28;20071;-14
2022/07/17 03:08:25;;;;;;;6.38;4.97;;;23.80;61.00;;;;;;5052525;28;20036;-14
2022/07/17 03:10:51;;;;;;;6.63;4.90;;;23.80;60.60;;;;;;5057022;28;20076;-13
2022/07/17 03:13:17;;;;;;;8.27;5.20;;;23.90;60.30;;;;;;5056773;28;20032;-13
2022/07/17 03:15:44;;;;;;;6.82;5.32;;;23.90;60.10;;;;;;5056539;28;20067;-14
2022/07/17 03:18:10;;;;;;;9.38;5.22;;;23.90;59.60;;;;;;5056758;28;20070;-15
2022/07/17 03:20:36;;;;;;;7.90;5.07;;;23.90;59.40;;;;;;5056091;28;20029;-14
2022/07/17 03:23:02;;;;;;;6.70;4.85;;;23.90;59.10;;;;;;5056699;28;20035;-15
2022/07/17 03:25:28;;;;;;;5.95;5.00;;;24.00;58.80;;;;;;5056352;28;20096;-14
2022/07/17 03:27:54;;;;;;;6.72;4.78;;;24.00;58.80;;;;;;5056227;28;20061;-14
2022/07/17 03:30:20;;;;;;;7.57;4.70;;;24.00;58.60;;;;;;5056311;28;20055;-14
2022/07/17 03:32:45;;;;;;;8.00;5.68;;;24.00;58.60;;;;;;5056161;28;20045;-16
2022/07/17 03:35:11;;;;;;;10.50;5.43;;;24.00;58.60;;;;;;5054739;28;20028;-14
2022/07/17 03:37:38;;;;;;;8.10;5.18;;;24.00;58.50;;;;;;5054841;28;20120;-14
2022/07/17 03:40:06;;;;;;;8.15;5.20;;;24.00;58.60;;;;;;5056035;28;20380;-15
2022/07/17 03:42:32;;;;;;;7.72;4.82;;;23.90;58.70;;;;;;5055700;28;20029;-15
2022/07/17 03:44:58;;;;;;;6.55;4.90;;;23.90;58.80;;;;;;5056176;28;20025;-15
2022/07/17 03:47:24;;;;;;;8.05;4.63;;;23.90;59.00;;;;;;5056055;28;20036;-15
2022/07/17 03:49:50;;;;;;;7.00;4.60;;;23.80;59.20;;;;;;5055789;28;20036;-15
2022/07/17 03:52:16;;;;;;;6.38;4.57;;;23.80;59.10;;;;;;5055760;28;20491;-14
2022/07/17 03:54:42;;;;;;;8.07;5.32;;;23.70;59.40;;;;;;5056248;28;20045;-14
2022/07/17 03:57:08;;;;;;;8.55;5.43;;;23.70;59.80;;;;;;5055852;28;20472;-16
2022/07/17 03:59:34;;;;;;;6.50;4.95;;;23.60;59.90;;;;;;5055722;28;20033;-13
2022/07/17 04:02:00;;;;;;;7.78;5.55;;;23.60;60.20;;;;;;5055577;28;20045;-15
2022/07/17 04:04:26;;;;;;;7.18;4.97;;;23.50;60.40;;;;;;5055389;28;20060;-14
2022/07/17 04:06:52;;;;;;;8.40;4.97;;;23.50;60.10;;;;;;5055523;28;20488;-14
2022/07/17 04:09:18;;;;;;;7.68;4.85;;;23.50;60.20;;;;;;5055574;28;20029;-14
2022/07/17 04:11:44;;;;;;;6.95;4.97;;;23.50;60.00;;;;;;5055705;28;20025;-14
2022/07/17 04:14:10;;;;;;;6.70;4.70;;;23.60;60.10;;;;;;5055361;28;20039;-14
2022/07/17 04:16:36;;;;;;;8.13;5.43;;;23.60;60.10;;;;;;5053981;28;20021;-15
2022/07/17 04:19:02;;;;;;;7.40;5.00;;;23.60;60.10;;;;;;5055216;28;20021;-14
2022/07/17 04:21:28;;;;;;;9.40;5.10;;;23.60;60.20;;;;;;5053930;28;20025;-14
2022/07/17 04:23:54;;;;;;;8.98;5.20;;;23.60;60.40;;;;;;5055338;28;20029;-14
2022/07/17 04:26:20;;;;;;;8.57;5.63;;;23.50;60.40;;;;;;5055026;28;20431;-15
2022/07/17 04:28:46;;;;;;;6.85;5.05;;;23.60;60.30;;;;;;5055065;28;20035;-14
2022/07/17 04:31:12;;;;;;;8.68;5.03;;;23.60;60.20;;;;;;5055106;28;20029;-14
2022/07/17 04:33:38;;;;;;;9.93;5.65;;;23.70;60.20;;;;;;5055498;28;20052;-15
2022/07/17 04:36:04;;;;;;;6.05;4.53;;;23.70;60.30;;;;;;5054799;28;20033;-14
2022/07/17 04:38:30;;;;;;;7.32;4.93;;;23.70;60.10;;;;;;5053609;28;20519;-13
2022/07/17 04:40:57;;;;;;;6.45;4.93;;;23.70;60.00;;;;;;5054804;28;20029;-14
2022/07/17 04:43:23;;;;;;;9.82;5.10;;;23.80;60.10;;;;;;5054762;28;20139;-14
2022/07/17 04:45:49;;;;;;;7.75;5.13;;;23.80;60.40;;;;;;5054851;28;20389;-14
2022/07/17 04:48:15;;;;;;;9.52;5.93;;;23.90;60.40;;;;;;5054485;28;20036;-15
2022/07/17 04:50:41;;;;;;;5.93;5.03;;;23.90;60.30;;;;;;5055409;28;20021;-14
2022/07/17 04:53:07;;;;;;;5.70;4.85;;;23.90;60.10;;;;;;5054681;28;20087;-14
2022/07/17 04:55:33;;;;;;;6.15;5.00;;;24.00;59.70;;;;;;5053334;28;20060;-14
2022/07/17 04:57:59;;;;;;;7.47;5.32;;;24.10;59.80;;;;;;5054537;28;20021;-14
2022/07/17 05:00:25;;;;;;;9.32;5.22;;;24.10;59.90;;;;;;5054285;28;20029;-14
2022/07/17 05:02:52;;;;;;;8.45;5.07;;;24.20;60.10;;;;;;5054463;28;20040;-14
2022/07/17 05:05:18;;;;;;;6.93;5.10;;;24.20;59.80;;;;;;5054314;28;20029;-14
2022/07/17 05:07:44;;;;;;;8.80;5.35;;;24.30;59.70;;;;;;5053086;28;20123;-14
2022/07/17 05:10:10;;;;;;;8.23;5.22;;;24.30;59.40;;;;;;5054320;28;20380;-15
2022/07/17 05:12:37;;;;;;;7.28;5.00;;;24.40;59.10;;;;;;5052878;28;20071;-16
2022/07/17 05:15:04;;;;;;;7.68;5.35;;;24.40;59.20;;;;;;5054246;28;20031;-14
2022/07/17 05:17:30;;;;;;;7.88;5.10;;;24.50;59.20;;;;;;5054279;28;20051;-14
2022/07/17 05:19:56;;;;;;;6.72;5.38;;;24.70;58.80;;;;;;5054294;28;20029;-13
2022/07/17 05:22:22;;;;;;;7.97;5.28;;;24.80;58.50;;;;;;5054084;28;20116;-15
2022/07/17 05:24:48;;;;;;;6.35;4.70;;;24.90;58.20;;;;;;5052844;28;20392;-14
2022/07/17 05:27:14;;;;;;;8.95;5.10;;;25.00;58.00;;;;;;5054310;28;20043;-15
2022/07/17 05:29:40;;;;;;;7.80;5.28;;;25.10;56.90;;;;;;5054224;28;20043;-14
2022/07/17 05:32:06;;;;;;;10.35;5.07;;;25.20;57.10;;;;;;5052063;28;20049;-14
2022/07/17 05:34:32;;;;;;;8.40;4.80;;;25.40;56.30;;;;;;5053638;28;20062;-15
2022/07/17 05:36:58;;;;;;;7.47;5.05;;;25.40;55.10;;;;;;5054051;28;20032;-14
2022/07/17 05:39:24;;;;;;;6.72;5.00;;;25.50;55.10;;;;;;5053755;28;20033;-14
2022/07/17 05:41:50;;;;;;;7.63;4.60;;;25.60;54.40;;;;;;5053658;28;20021;-13
2022/07/17 05:44:16;;;;;;;8.48;5.20;;;25.60;53.80;;;;;;5053554;28;20128;-16
2022/07/17 05:46:42;;;;;;;8.30;4.82;;;25.70;53.20;;;;;;5053758;28;20376;-16
2022/07/17 05:49:08;;;;;;;5.75;4.45;;;25.70;52.70;;;;;;5053765;28;20025;-16
2022/07/17 05:51:34;;;;;;;7.28;5.10;;;25.70;53.30;;;;;;5053811;28;20036;-14
2022/07/17 05:54:00;;;;;;;8.63;4.63;;;25.90;53.20;;;;;;5053721;28;20017;-14
2022/07/17 05:56:26;;;;;;;6.82;4.78;;;25.90;53.10;;;;;;5053234;28;20455;-14
2022/07/17 05:58:52;;;;;;;7.05;4.55;;;25.90;51.90;;;;;;5053474;28;20029;-14
2022/07/17 06:01:18;;;;;;;7.95;4.50;;;26.00;52.20;;;;;;5053381;28;20121;-14
2022/07/17 06:03:44;;;;;;;6.53;4.68;;;26.10;51.30;;;;;;5053322;28;20068;-15
2022/07/17 06:06:10;;;;;;;7.53;4.55;;;26.10;50.80;;;;;;5053176;28;20033;-14
2022/07/17 06:08:36;;;;;;;8.65;4.70;;;26.20;51.00;;;;;;5053136;28;20025;-15
2022/07/17 06:11:02;;;;;;;8.43;4.38;;;26.30;50.90;;;;;;5053364;28;20025;-14
2022/07/17 06:13:28;;;;;;;8.18;4.60;;;26.40;50.10;;;;;;5053620;28;20045;-14
2022/07/17 06:15:56;;;;;;;8.45;4.63;;;26.40;49.80;;;;;;5053088;28;20071;-14
2022/07/17 06:18:22;;;;;;;6.53;4.53;;;26.50;49.40;;;;;;5052960;28;20074;-14
2022/07/17 06:20:47;;;;;;;6.70;4.63;;;26.60;48.80;;;;;;5053232;28;20017;-14
2022/07/17 06:23:13;;;;;;;6.70;3.97;;;26.60;48.10;;;;;;5052999;28;20095;-14
2022/07/17 06:25:39;;;;;;;4.93;4.13;;;26.70;48.70;;;;;;5053355;28;20107;-15
2022/07/17 06:28:06;;;;;;;6.63;4.18;;;26.70;47.50;;;;;;5053145;28;20388;-14
2022/07/17 06:30:32;;;;;;;7.47;4.60;;;26.80;47.80;;;;;;5052778;28;20481;-14
2022/07/17 06:33:01;;;;;;;8.30;4.20;;;26.80;47.60;;;;;;5052908;28;20040;-14
2022/07/17 06:35:29;;;;;;;7.38;4.20;;;26.90;47.70;;;;;;5052866;28;20380;-14
2022/07/17 06:37:55;;;;;;;8.15;4.50;;;27.00;46.60;;;;;;5053236;28;20029;-15
2022/07/17 06:40:21;;;;;;;8.30;4.38;;;27.10;47.20;;;;;;5053203;28;20022;-14
2022/07/17 06:42:47;;;;;;;5.18;4.00;;;27.20;47.30;;;;;;5053280;28;20029;-15
2022/07/17 06:45:13;;;;;;;6.35;4.20;;;27.40;47.40;;;;;;5056193;28;20094;-14
2022/07/17 06:47:39;;;;;;;5.78;4.20;;;27.50;46.10;;;;;;5057280;28;20420;-14
2022/07/17 06:50:06;;;;;;;5.63;4.10;;;27.60;45.80;;;;;;5056919;28;20048;-15
2022/07/17 06:52:32;;;;;;;6.03;3.90;;;27.70;46.20;;;;;;5056790;28;20131;-14
2022/07/17 06:54:58;;;;;;;6.30;4.22;;;27.80;45.20;;;;;;5055671;28;20035;-15
2022/07/17 06:57:24;;;;;;;6.60;4.50;;;27.90;45.20;;;;;;5057022;28;20029;-14
2022/07/17 06:59:50;;;;;;;6.28;4.05;;;28.00;45.20;;;;;;5056781;28;20048;-14
2022/07/17 07:02:16;;;;;;;7.45;3.83;;;28.20;44.60;;;;;;5056574;28;20029;-14
2022/07/17 07:04:43;;;;;;;6.20;3.70;;;28.30;43.90;;;;;;5057139;28;20032;-14
2022/07/17 07:07:10;;;;;;;8.65;3.75;;;28.40;43.50;;;;;;5056100;28;20025;-14
2022/07/17 07:09:36;;;;;;;9.98;4.30;;;28.50;44.00;;;;;;5056796;28;20021;-14
2022/07/17 07:12:02;;;;;;;6.32;4.10;;;28.60;42.50;;;;;;5056853;28;20052;-14
2022/07/17 07:14:28;;;;;;;6.05;3.70;;;28.70;41.40;;;;;;5056295;28;20508;-16
2022/07/17 07:16:54;;;;;;;6.35;3.72;;;28.70;42.50;;;;;;5057010;28;20029;-14
2022/07/17 07:19:20;;;;;;;6.63;4.00;;;28.70;42.70;;;;;;5056315;28;20025;-14
2022/07/17 07:21:46;;;;;;;9.18;4.32;;;28.90;43.10;;;;;;5056625;28;20028;-14
2022/07/17 07:24:12;;;;;;;5.38;3.90;;;28.90;41.10;;;;;;5056636;28;20385;-15
2022/07/17 07:26:38;;;;;;;6.82;4.20;;;29.00;41.20;;;;;;5056269;28;20037;-15
2022/07/17 07:29:04;;;;;;;6.95;3.53;;;29.10;40.40;;;;;;5054989;28;20039;-13
2022/07/17 07:31:29;;;;;;;8.65;3.60;;;29.10;40.40;;;;;;5055990;28;20053;-14
2022/07/17 07:33:55;;;;;;;9.00;3.85;;;29.20;40.50;;;;;;5056481;28;20017;-13
2022/07/17 07:36:21;;;;;;;5.88;3.58;;;29.20;39.90;;;;;;5056236;28;20032;-14
2022/07/17 07:38:47;;;;;;;5.38;3.75;;;29.20;40.80;;;;;;5056414;28;20040;-14
2022/07/17 07:41:13;;;;;;;5.55;3.85;;;29.40;40.80;;;;;;5056252;28;20028;-13
2022/07/17 07:43:39;;;;;;;24.35;5.47;;;29.60;40.90;;;;;;5056075;28;20021;-14
2022/07/17 07:46:05;;;;;;;6.72;3.97;;;29.70;40.40;;;;;;5055893;28;20025;-14
2022/07/17 07:48:31;;;;;;;7.30;3.95;;;29.90;39.10;;;;;;5056008;28;20017;-15
2022/07/17 07:50:57;;;;;;;11.40;3.80;;;29.90;39.70;;;;;;5055964;28;20025;-13
2022/07/17 07:53:23;;;;;;;5.30;3.40;;;30.00;40.10;;;;;;5055775;28;20028;-14
2022/07/17 07:55:50;;;;;;;8.98;4.25;;;30.00;39.10;;;;;;5055543;28;20033;-15
2022/07/17 07:58:16;;;;;;;5.38;3.67;;;30.00;38.70;;;;;;5055545;28;20025;-14
2022/07/17 08:00:44;;;;;;;6.57;3.95;;;30.10;37.90;;;;;;5055657;28;20515;-15
2022/07/17 08:03:11;;;;;;;4.80;3.80;;;30.20;38.70;;;;;;5055638;28;20025;-15
2022/07/17 08:05:37;;;;;;;8.85;4.00;;;30.30;39.40;;;;;;5055817;28;20086;-15
2022/07/17 08:08:03;;;;;;;7.55;4.13;;;30.50;39.00;;;;;;5055533;28;20420;-14
2022/07/17 08:10:30;;;;;;;5.80;3.55;;;30.70;38.00;;;;;;5055227;28;20493;-13
2022/07/17 08:12:56;;;;;;;5.57;3.67;;;30.80;38.40;;;;;;5055567;28;20074;-14
2022/07/17 08:15:22;;;;;;;5.03;3.30;;;31.00;37.20;;;;;;5055344;28;20052;-14
2022/07/17 08:17:51;;;;;;;6.50;3.78;;;31.10;37.50;;;;;;5055689;28;20025;-12
2022/07/17 08:20:17;;;;;;;7.50;3.58;;;31.20;37.30;;;;;;5055022;28;20029;-15
2022/07/17 08:22:44;;;;;;;9.43;3.72;;;31.40;37.50;;;;;;5055146;28;20043;-14
2022/07/17 08:25:11;;;;;;;6.72;3.60;;;31.50;36.90;;;;;;5055223;28;20140;-15
2022/07/17 08:27:39;;;;;;;5.05;3.40;;;31.70;36.60;;;;;;5055337;28;20100;-13
2022/07/17 08:30:08;;;;;;;5.82;3.50;;;31.90;36.00;;;;;;5055519;28;20082;-13
2022/07/17 08:32:35;;;;;;;8.68;3.78;;;32.00;35.50;;;;;;5054645;28;20092;-16
2022/07/17 08:35:01;;;;;;;5.07;3.40;;;32.00;35.40;;;;;;5054862;28;20393;-14
2022/07/17 08:37:27;;;;;;;10.32;3.90;;;32.00;35.60;;;;;;5055030;28;20025;-16
2022/07/17 08:39:53;;;;;;;15.93;4.35;;;32.10;35.70;;;;;;5053720;28;20032;-16
2022/07/17 08:42:19;;;;;;;8.80;3.90;;;32.10;35.90;;;;;;5054518;28;20025;-16
2022/07/17 08:44:47;;;;;;;5.13;3.70;;;32.30;35.80;;;;;;5054729;28;20039;-14
2022/07/17 08:47:14;;;;;;;7.75;3.70;;;32.40;35.00;;;;;;5054995;28;20024;-15
2022/07/17 08:49:49;;;;;;;13.40;4.70;;;32.40;35.70;;;;;;5054652;28;20099;-14
2022/07/17 08:52:15;;;;;;;7.55;3.30;;;32.60;35.70;;;;;;5054466;28;20075;-15
2022/07/17 08:54:41;;;;;;;7.65;3.60;;;32.70;35.90;;;;;;5055282;28;20504;-16
2022/07/17 08:57:09;;;;;;;6.68;3.75;;;32.70;34.50;;;;;;5054574;28;20032;-14
2022/07/17 08:59:35;;;;;;;5.68;3.65;;;32.70;34.40;;;;;;5054505;28;20556;-14
2022/07/17 09:02:03;;;;;;;17.20;4.47;;;32.60;35.10;;;;;;5054662;28;20489;-14
2022/07/17 09:04:29;;;;;;;6.13;3.70;;;32.60;34.60;;;;;;5054224;28;20071;-15
2022/07/17 09:07:04;;;;;;;7.13;3.42;;;32.80;34.40;;;;;;5053715;28;20029;-14
2022/07/17 09:09:30;;;;;;;14.30;4.20;;;32.80;34.30;;;;;;5054435;28;20025;-14
2022/07/17 09:11:58;;;;;;;3.40;3.10;;;32.90;34.10;;;;;;5054547;28;20029;-14
2022/07/17 09:14:35;;;;;;;7.75;3.75;;;32.90;33.80;;;;;;5053995;28;20515;-13
2022/07/17 09:17:03;;;;;;;28.55;5.00;;;33.20;34.00;;;;;;5054553;28;20043;-14
2022/07/17 09:19:47;;;;;;;9.07;3.53;;;33.40;33.90;;;;;;5054382;28;20108;-14
2022/07/17 09:22:23;;;;;;;6.32;3.63;;;33.60;33.40;;;;;;5053864;28;20033;-19
2022/07/17 09:24:53;;;;;;;4.47;3.13;;;33.70;33.20;;;;;;5054312;28;20033;-14
2022/07/17 09:27:25;;;;;;;3.63;3.05;;;33.60;33.50;;;;;;5054086;28;20025;-13
2022/07/17 09:30:01;;;;;;;6.20;3.40;;;33.80;31.90;;;;;;5054102;28;20025;-14
2022/07/17 09:32:35;;;;;;;7.20;3.65;;;33.90;32.30;;;;;;5053703;28;20049;-14
2022/07/17 09:35:03;;;;;;;6.47;3.55;;;33.90;33.00;;;;;;5053866;28;20024;-15
2022/07/17 09:37:31;;;;;;;8.13;3.70;;;33.90;32.60;;;;;;5053811;28;20511;-14
2022/07/17 09:39:58;;;;;;;3.53;3.22;;;34.00;32.80;;;;;;5053792;28;20025;-14
2022/07/17 09:42:26;;;;;;;8.07;3.30;;;34.30;32.30;;;;;;5052257;28;20026;-14
2022/07/17 09:45:02;;;;;;;6.10;3.55;;;34.50;32.20;;;;;;5053974;28;20032;-15
2022/07/17 09:47:30;;;;;;;4.57;3.10;;;34.50;32.30;;;;;;5053923;28;20028;-15
2022/07/17 09:49:59;;;;;;;5.57;3.53;;;34.70;32.00;;;;;;5053746;28;20108;-14
2022/07/17 09:52:29;;;;;;;5.68;3.42;;;34.90;31.70;;;;;;5053354;28;20025;-14
2022/07/17 09:54:57;;;;;;;5.55;3.30;;;35.10;32.10;;;;;;5053890;28;20115;-13
2022/07/17 09:57:32;;;;;;;4.93;3.63;;;35.20;31.90;;;;;;5053885;28;20052;-14
2022/07/17 10:00:05;;;;;;;5.88;3.50;;;35.20;31.20;;;;;;5053787;28;20029;-13
2022/07/17 10:02:32;;;;;;;4.80;3.30;;;35.20;31.90;;;;;;5053545;28;20044;-12
2022/07/17 10:04:58;;;;;;;6.80;3.60;;;35.20;31.40;;;;;;5053613;28;20050;-15
2022/07/17 10:07:24;;;;;;;6.70;3.45;;;35.40;31.60;;;;;;5053675;28;20021;-16
2022/07/17 10:09:50;;;;;;;4.57;3.30;;;35.50;30.90;;;;;;5053559;28;20043;-14
2022/07/17 10:12:19;;;;;;;5.70;3.50;;;35.60;30.20;;;;;;5053178;28;20100;-14
2022/07/17 10:14:49;;;;;;;5.30;3.35;;;35.80;30.10;;;;;;5053118;28;20025;-14
2022/07/17 10:17:20;;;;;;;6.55;3.30;;;35.80;30.40;;;;;;5053536;28;20028;-14
2022/07/17 10:19:53;;;;;;;5.93;3.43;;;36.10;29.90;;;;;;5053308;28;20025;-14
2022/07/17 10:22:20;;;;;;;4.22;3.20;;;36.10;30.80;;;;;;5052932;28;20033;-12
2022/07/17 10:24:55;;;;;;;7.13;3.50;;;36.40;30.60;;;;;;5053428;28;20074;-14
2022/07/17 10:27:24;;;;;;;5.22;3.25;;;36.40;29.60;;;;;;5053157;28;20028;-14
2022/07/17 10:30:09;;;;;;;5.03;3.42;;;36.40;30.20;;;;;;5052993;28;20472;-13
2022/07/17 10:32:36;;;;;;;4.72;3.25;;;36.40;30.20;;;;;;5052626;28;20091;-13
2022/07/17 10:35:06;;;;;;;6.43;3.38;;;36.50;30.20;;;;;;5053154;28;20021;-12
2022/07/17 10:37:35;;;;;;;7.93;3.50;;;36.60;29.80;;;;;;5053204;28;20029;-13
2022/07/17 10:40:15;;;;;;;4.18;3.20;;;36.80;29.70;;;;;;5052971;28;20025;-13
2022/07/17 10:42:56;;;;;;;6.13;3.05;;;36.90;29.20;;;;;;5053161;28;20036;-13
2022/07/17 10:45:23;;;;;;;4.50;3.30;;;37.20;29.90;;;;;;5053298;28;20029;-13
2022/07/17 10:47:53;;;;;;;4.90;3.30;;;37.50;29.40;;;;;;5052814;28;20074;-14
2022/07/17 10:50:23;;;;;;;5.93;3.70;;;37.40;28.90;;;;;;5052660;28;20083;-14
2022/07/17 10:53:01;;;;;;;5.70;3.20;;;37.40;28.60;;;;;;5052873;28;20051;-13
2022/07/17 10:55:28;;;;;;;6.53;3.40;;;37.00;28.90;;;;;;5053119;28;20052;-15
2022/07/17 10:57:55;;;;;;;4.95;3.03;;;37.40;28.90;;;;;;5052764;28;20029;-15
2022/07/17 11:00:21;;;;;;;5.05;3.58;;;37.90;28.60;;;;;;5052615;28;20400;-14
2022/07/17 11:02:47;;;;;;;3.65;3.08;;;37.90;27.90;;;;;;5052920;28;20033;-14
2022/07/17 11:05:14;;;;;;;5.13;3.13;;;38.10;27.80;;;;;;5052952;28;20067;-13
2022/07/17 11:07:58;;;;;;;4.47;3.22;;;38.00;28.00;;;;;;5052978;28;20032;-13
2022/07/17 11:10:28;;;;;;;3.75;3.30;;;38.30;27.60;;;;;;5052729;28;20129;-13
2022/07/17 11:13:07;;;;;;;3.40;3.10;;;38.50;27.70;;;;;;5052609;28;20021;-13
2022/07/17 11:15:53;;;;;;;3.53;3.22;;;38.70;27.00;;;;;;5052694;28;20527;-13
2022/07/17 11:18:22;;;;;;;6.20;3.30;;;38.90;26.40;;;;;;5052096;28;20095;-15
2022/07/17 11:20:51;;;;;;;4.43;3.05;;;38.90;26.60;;;;;;5052765;28;20349;-14
2022/07/17 11:23:17;;;;;;;6.68;3.33;;;39.10;26.50;;;;;;5052846;28;20595;-14
2022/07/17 11:25:54;;;;;;;5.38;3.20;;;38.80;27.00;;;;;;5052841;28;20017;-14
2022/07/17 11:28:40;;;;;;;4.47;3.38;;;38.80;26.60;;;;;;5051137;28;20049;-14
2022/07/17 11:31:27;;;;;;;3.75;3.38;;;38.90;27.00;;;;;;5054789;28;20021;-14
2022/07/17 11:34:04;;;;;;;4.75;3.38;;;39.10;27.00;;;;;;5056493;28;20499;-14
2022/07/17 11:36:34;;;;;;;3.50;3.20;;;39.30;26.80;;;;;;5055910;28;20039;-14
2022/07/17 11:39:14;;;;;;;6.53;3.20;;;39.40;26.60;;;;;;5056226;28;20017;-13
2022/07/17 11:41:50;;;;;;;4.07;3.60;;;39.70;26.50;;;;;;5056486;28;20020;-14
2022/07/17 11:44:20;;;;;;;4.82;3.10;;;39.60;26.10;;;;;;5055767;28;20025;-14
2022/07/17 11:46:49;;;;;;;3.13;2.83;;;40.00;26.70;;;;;;5055959;28;20032;-13
2022/07/17 11:49:26;;;;;;;4.97;3.00;;;40.50;26.30;;;;;;5056364;28;20052;-14
2022/07/17 11:51:54;;;;;;;3.53;3.22;;;40.90;25.90;;;;;;5055861;28;20099;-13
2022/07/17 11:54:21;;;;;;;4.72;3.22;;;41.40;25.20;;;;;;5055853;28;20021;-14
2022/07/17 11:56:57;;;;;;;4.15;3.25;;;41.90;24.60;;;;;;5056441;28;20039;-13
2022/07/17 11:59:31;;;;;;;4.20;3.17;;;41.60;24.80;;;;;;5056097;28;20067;-13
2022/07/17 12:02:12;;;;;;;5.43;3.40;;;41.70;24.70;;;;;;5054437;28;20021;-13
2022/07/17 12:04:58;;;;;;;4.70;3.28;;;41.20;25.40;;;;;;5056170;28;20051;-16
2022/07/17 12:07:26;;;;;;;7.25;3.40;;;40.90;25.00;;;;;;5055602;28;20111;-13
2022/07/17 12:09:53;;;;;;;3.30;3.00;;;41.10;25.70;;;;;;5055590;28;20033;-12
2022/07/17 12:12:25;;;;;;;5.43;3.50;;;41.30;25.70;;;;;;5055653;28;20055;-13
2022/07/17 12:14:58;;;;;;;5.50;3.30;;;40.90;25.30;;;;;;5055817;28;20036;-14
2022/07/17 12:17:40;;;;;;;5.50;3.33;;;40.90;26.00;;;;;;5055782;28;20021;-13
2022/07/17 12:20:07;;;;;;;;;;;41.10;25.40;;;;;;5055980;28;20049;-13
2022/07/17 12:22:47;;;;;;;3.50;3.20;;;41.40;25.10;;;;;;5054956;28;19970;-13
2022/07/17 12:25:28;;;;;;;4.38;3.20;;;41.80;25.40;;;;;;5055332;28;20025;-13
2022/07/17 12:27:54;;;;;;;4.65;3.50;;;42.20;24.90;;;;;;5055498;28;20067;-13
2022/07/17 12:30:21;;;;;;;4.35;2.90;;;41.90;24.30;;;;;;5054921;28;20060;-13
2022/07/17 12:32:47;;;;;;;5.65;3.17;;;41.80;24.60;;;;;;5062740;28;20398;-13
2022/07/17 12:35:15;;;;;;;3.33;3.03;;;41.90;24.60;;;;;;5055937;28;20049;-13
2022/07/17 12:37:41;;;;;;;4.10;3.20;;;42.10;24.30;;;;;;5055185;28;20485;-13
2022/07/17 12:40:08;;;;;;;3.08;2.80;;;42.40;23.90;;;;;;5054959;28;20028;-13
2022/07/17 12:42:34;;;;;;;4.28;2.80;;;42.60;24.00;;;;;;5053580;28;20029;-13
2022/07/17 12:45:01;;;;;;;4.10;3.10;;;42.90;23.80;;;;;;5055566;28;20120;-13
2022/07/17 12:47:28;;;;;;;4.95;3.22;;;43.20;23.40;;;;;;5054825;28;20542;-13
2022/07/17 12:49:53;;;;;;;3.33;2.90;;;42.90;23.50;;;;;;5054837;28;20021;-13
2022/07/17 12:52:19;;;;;;;5.95;3.10;;;42.90;23.70;;;;;;5054640;28;20017;-13